Time;durP1;ratioP1;P1;durP2;ratioP2;P2;SDS_P1;SDS_P2;PMS_P1;PMS_P2;Temp;Humidity;BMP_temperature;BMP_pressure;BME280_temperature;BME280_humidity;BME280_pressure;Samples;Min_cycle;Max_cycle;Signal;HPM_P1;HPM_P2
2021/11/23 00:00:37;;;;;;;8.90;3.42;;;;;;;0.96;87.10;101685.00;5012865;28;20045;-77
2021/11/23 00:03:03;;;;;;;9.18;3.53;;;;;;;1.01;86.97;101687.97;5025492;28;20052;-77
2021/11/23 00:05:29;;;;;;;8.25;3.42;;;;;;;0.98;87.08;101685.66;5016682;28;20025;-77
2021/11/23 00:07:54;;;;;;;6.70;3.03;;;;;;;0.93;87.28;101680.78;5018588;28;20037;-77
2021/11/23 00:10:20;;;;;;;9.70;3.80;;;;;;;0.92;87.55;101681.84;5019180;28;20510;-77
2021/11/23 00:12:45;;;;;;;9.65;3.97;;;;;;;0.93;87.62;101682.66;5013366;28;20030;-77
2021/11/23 00:15:11;;;;;;;11.23;3.88;;;;;;;0.92;87.62;101683.69;5027262;28;20490;-77
2021/11/23 00:17:36;;;;;;;8.73;4.15;;;;;;;0.91;87.68;101673.81;5035320;28;20033;-77
2021/11/23 00:20:03;;;;;;;8.55;3.63;;;;;;;0.85;87.86;101675.47;5032846;28;20036;-77
2021/11/23 00:22:31;;;;;;;9.45;3.92;;;;;;;0.84;88.24;101676.53;5020433;28;20128;-77
2021/11/23 00:24:57;;;;;;;7.53;3.97;;;;;;;0.87;88.23;101674.22;5019127;28;20026;-77
2021/11/23 00:27:23;;;;;;;5.70;3.38;;;;;;;0.82;88.52;101676.72;5031554;28;20405;-77
2021/11/23 00:29:48;;;;;;;6.07;3.53;;;;;;;0.83;88.25;101672.91;5001457;28;20036;-77
2021/11/23 00:32:13;;;;;;;8.88;4.00;;;;;;;0.79;88.74;101671.66;5007702;28;20033;-77
2021/11/23 00:34:39;;;;;;;8.55;3.63;;;;;;;0.83;88.76;101670.19;5025601;28;20517;-76
2021/11/23 00:37:04;;;;;;;5.55;3.22;;;;;;;0.79;89.10;101668.91;5028848;28;20033;-77
2021/11/23 00:39:30;;;;;;;8.50;3.53;;;;;;;0.80;89.35;101667.00;4997370;28;20033;-77
2021/11/23 00:41:55;;;;;;;6.07;3.42;;;;;;;0.79;89.20;101668.06;4981936;28;20037;-77
2021/11/23 00:44:21;;;;;;;5.22;3.08;;;;;;;0.79;89.11;101670.81;5033605;28;20029;-77
2021/11/23 00:46:47;;;;;;;8.18;4.05;;;;;;;0.76;89.43;101661.09;5002066;28;20045;-78
2021/11/23 00:49:13;;;;;;;10.02;3.75;;;;;;;0.69;89.77;101660.22;5003202;28;20057;-76
2021/11/23 00:51:39;;;;;;;11.15;3.83;;;;;;;0.76;90.13;101665.75;5001700;28;20112;-77
2021/11/23 00:54:04;;;;;;;8.48;3.78;;;;;;;0.74;90.28;101663.19;5002239;28;20029;-77
2021/11/23 00:56:30;;;;;;;8.60;3.65;;;;;;;0.78;90.20;101660.88;4995376;28;20039;-77
2021/11/23 00:58:55;;;;;;;8.68;4.15;;;;;;;0.74;90.57;101659.63;5006178;28;20037;-77
2021/11/23 01:01:21;;;;;;;8.35;3.47;;;;;;;0.76;90.23;101658.38;5032993;28;20087;-77
2021/11/23 01:03:46;;;;;;;7.43;3.80;;;;;;;0.75;90.33;101656.66;4998930;28;20500;-77
2021/11/23 01:06:12;;;;;;;8.90;3.38;;;;;;;0.76;90.45;101654.81;4983865;28;20080;-77
2021/11/23 01:08:39;;;;;;;8.52;3.90;;;;;;;0.69;90.94;101652.00;5017532;28;20045;-77
2021/11/23 01:11:09;;;;;;;12.52;4.45;;;;;;;0.70;91.04;101650.97;4996998;28;20038;-77
2021/11/23 01:13:34;;;;;;;9.32;4.80;;;;;;;0.69;91.22;101648.44;5006618;28;20113;-77
2021/11/23 01:16:00;;;;;;;10.07;4.38;;;;;;;0.64;91.39;101646.28;5017895;28;20029;-77
2021/11/23 01:18:25;;;;;;;7.38;3.95;;;;;;;0.65;91.62;101648.00;4999887;28;20022;-77
2021/11/23 01:20:51;;;;;;;9.65;4.20;;;;;;;0.63;91.65;101656.38;5017846;28;20515;-77
2021/11/23 01:23:16;;;;;;;9.10;3.88;;;;;;;0.63;91.84;101661.84;5031324;28;20050;-77
2021/11/23 01:25:42;;;;;;;13.18;4.95;;;;;;;0.62;92.06;101654.72;5015610;28;20033;-77
2021/11/23 01:28:07;;;;;;;8.68;3.88;;;;;;;0.62;92.31;101653.88;5001381;28;20030;-77
2021/11/23 01:30:33;;;;;;;12.68;4.53;;;;;;;0.60;92.65;101648.59;5031253;28;20029;-77
2021/11/23 01:32:58;;;;;;;13.80;5.20;;;;;;;0.61;92.56;101653.03;5032937;28;20026;-77
2021/11/23 01:35:24;;;;;;;9.30;3.95;;;;;;;0.61;92.75;101653.03;5016688;28;20108;-77
2021/11/23 01:37:50;;;;;;;11.52;4.70;;;;;;;0.59;92.89;101648.81;5032497;28;20030;-78
2021/11/23 01:40:16;;;;;;;11.05;5.20;;;;;;;0.57;93.05;101643.53;5017188;28;20029;-77
2021/11/23 01:42:41;;;;;;;12.95;5.47;;;;;;;0.60;92.99;101634.91;5016386;28;20037;-77
2021/11/23 01:45:07;;;;;;;16.80;5.30;;;;;;;0.59;92.85;101635.13;5006876;28;20044;-77
2021/11/23 01:47:33;;;;;;;13.10;4.97;;;;;;;0.58;92.65;101625.22;5035423;28;20026;-77
2021/11/23 01:49:58;;;;;;;13.85;5.75;;;;;;;0.60;93.04;101628.63;5031076;28;20374;-77
2021/11/23 01:52:24;;;;;;;13.20;5.22;;;;;;;0.62;92.50;101632.84;5020298;28;20037;-77
2021/11/23 01:54:49;;;;;;;10.15;5.53;;;;;;;0.56;92.86;101636.38;5027282;28;20378;-77
2021/11/23 01:57:16;;;;;;;14.68;5.78;;;;;;;0.52;93.16;101634.25;5036097;28;20033;-78
2021/11/23 01:59:42;;;;;;;13.90;5.38;;;;;;;0.56;93.32;101641.84;5021462;28;20482;-77
2021/11/23 02:02:07;;;;;;;16.05;5.70;;;;;;;0.54;93.28;101641.19;5021198;28;20056;-78
2021/11/23 02:04:33;;;;;;;11.73;5.78;;;;;;;0.48;93.25;101642.00;5035124;28;20393;-77
2021/11/23 02:06:58;;;;;;;11.30;5.10;;;;;;;0.46;93.49;101644.09;5037412;28;20026;-77
2021/11/23 02:09:24;;;;;;;14.93;6.22;;;;;;;0.46;93.33;101641.34;5035698;28;20480;-77
2021/11/23 02:11:50;;;;;;;14.70;5.90;;;;;;;0.45;93.72;101636.94;5038029;28;20029;-77
2021/11/23 02:14:16;;;;;;;13.55;6.43;;;;;;;0.46;93.69;101635.88;5028725;28;20041;-77
2021/11/23 02:16:41;;;;;;;13.68;6.22;;;;;;;0.44;93.47;101637.97;5021418;28;20029;-77
2021/11/23 02:19:07;;;;;;;14.05;6.82;;;;;;;0.40;94.19;101644.88;5033257;28;20084;-77
2021/11/23 02:21:32;;;;;;;14.13;6.93;;;;;;;0.40;94.25;101645.72;5033285;28;20395;-77
2021/11/23 02:23:58;;;;;;;14.38;6.43;;;;;;;0.37;94.81;101642.56;5033125;28;20049;-77
2021/11/23 02:26:25;;;;;;;14.35;6.45;;;;;;;0.39;94.54;101637.72;5035241;28;20540;-77
2021/11/23 02:28:50;;;;;;;13.65;6.55;;;;;;;0.37;94.40;101637.94;5033465;28;20427;-77
2021/11/23 02:31:15;;;;;;;14.20;6.65;;;;;;;0.37;95.08;101635.19;5036303;28;20040;-77
2021/11/23 02:33:41;;;;;;;16.05;6.70;;;;;;;0.30;95.55;101639.75;5035297;28;20045;-77
2021/11/23 02:36:08;;;;;;;14.57;7.18;;;;;;;0.27;96.50;101631.97;5053991;28;20029;-77
2021/11/23 02:38:34;;;;;;;20.27;7.15;;;;;;;0.28;95.52;101639.13;5034651;28;20028;-77
2021/11/23 02:41:00;;;;;;;19.05;7.65;;;;;;;0.26;96.32;101635.75;5019366;28;20037;-77
2021/11/23 02:43:26;;;;;;;13.45;6.95;;;;;;;0.26;95.66;101632.19;5017489;28;20036;-77
2021/11/23 02:45:52;;;;;;;15.02;6.88;;;;;;;0.24;96.40;101628.78;5036696;28;20030;-77
2021/11/23 02:48:19;;;;;;;15.93;7.93;;;;;;;0.24;96.68;101617.84;5037394;28;20445;-77
2021/11/23 02:50:49;;;;;;;18.45;7.72;;;;;;;0.26;97.00;101627.53;5037181;28;20030;-77
2021/11/23 02:53:14;;;;;;;19.60;8.63;;;;;;;0.23;97.03;101630.69;5035171;28;20041;-77
2021/11/23 02:55:40;;;;;;;19.00;8.38;;;;;;;0.25;96.50;101625.84;5017991;28;20078;-77
2021/11/23 02:58:07;;;;;;;16.33;8.38;;;;;;;0.27;97.02;101625.66;5020103;28;20048;-76
2021/11/23 03:00:32;;;;;;;20.05;8.63;;;;;;;0.29;96.61;101624.41;5017540;28;20036;-77
2021/11/23 03:02:58;;;;;;;17.20;9.80;;;;;;;0.28;96.95;101621.88;5002845;28;20026;-76
2021/11/23 03:05:25;;;;;;;20.98;9.43;;;;;;;0.29;96.81;101623.56;5002990;28;20452;-77
2021/11/23 03:07:52;;;;;;;18.48;8.98;;;;;;;0.25;96.84;101625.00;5019302;28;20038;-77
2021/11/23 03:10:19;;;;;;;23.33;9.57;;;;;;;0.25;96.60;101625.84;5018213;28;20038;-77
2021/11/23 03:12:49;;;;;;;22.23;8.88;;;;;;;0.21;97.02;101630.03;5021164;28;20029;-77
2021/11/23 03:15:15;;;;;;;19.58;9.25;;;;;;;0.26;95.86;101622.09;5019812;28;20055;-77
2021/11/23 03:17:41;;;;;;;19.45;9.13;;;;;;;0.23;95.76;101627.94;5002189;28;20033;-77
2021/11/23 03:20:08;;;;;;;20.63;9.48;;;;;;;0.19;96.39;101624.75;5019877;28;20037;-77
2021/11/23 03:22:34;;;;;;;22.52;9.90;;;;;;;0.18;96.35;101620.34;4982686;28;20057;-77
2021/11/23 03:24:59;;;;;;;23.60;10.77;;;;;;;0.20;96.33;101628.34;5014933;28;20030;-77
2021/11/23 03:27:25;;;;;;;21.90;10.00;;;;;;;0.16;96.00;101616.94;5019002;28;20025;-77
2021/11/23 03:29:51;;;;;;;23.75;10.27;;;;;;;0.16;95.88;101622.41;5007463;28;20053;-78
2021/11/23 03:32:16;;;;;;;22.65;10.40;;;;;;;0.13;96.44;101625.53;5036130;28;20060;-77
2021/11/23 03:34:43;;;;;;;20.25;9.48;;;;;;;0.10;96.67;101620.47;5017483;28;20034;-77
2021/11/23 03:37:14;;;;;;;21.05;9.85;;;;;;;0.13;96.57;101621.97;5001437;28;20029;-77
2021/11/23 03:39:39;;;;;;;21.67;11.05;;;;;;;0.06;97.30;101621.09;5003727;28;20032;-77
2021/11/23 03:42:05;;;;;;;21.20;11.05;;;;;;;0.09;97.64;101624.25;4994649;28;20030;-77
2021/11/23 03:44:31;;;;;;;18.83;10.80;;;;;;;0.06;98.16;101624.66;5035427;28;20029;-77
2021/11/23 03:46:56;;;;;;;28.25;11.93;;;;;;;0.05;98.19;101622.94;4990111;28;20490;-77
2021/11/23 03:49:22;;;;;;;22.35;11.48;;;;;;;0.04;97.79;101620.44;5018760;28;20037;-77
2021/11/23 03:51:47;;;;;;;25.10;11.18;;;;;;;0.01;98.19;101624.41;5002455;28;20056;-77
2021/11/23 03:54:13;;;;;;;26.05;11.55;;;;;;;0.04;97.47;101624.00;5036324;28;20536;-78
2021/11/23 03:56:40;;;;;;;20.60;11.27;;;;;;;0.08;97.91;101628.03;5002096;28;20021;-77
2021/11/23 03:59:06;;;;;;;22.88;11.20;;;;;;;0.08;96.77;101625.28;5005823;28;20026;-77
2021/11/23 04:01:31;;;;;;;22.10;11.18;;;;;;;0.04;97.20;101615.81;5019656;28;20028;-77
2021/11/23 04:03:56;;;;;;;24.80;11.57;;;;;;;-0.01;97.79;101615.56;4996923;28;20038;-78
2021/11/23 04:06:22;;;;;;;21.33;11.23;;;;;;;-0.01;97.90;101621.84;4994492;28;20062;-77
2021/11/23 04:08:47;;;;;;;19.60;10.80;;;;;;;-0.01;97.01;101612.81;4999286;28;20026;-78
2021/11/23 04:11:13;;;;;;;17.55;10.32;;;;;;;-0.02;97.10;101606.53;5008681;28;20588;-78
2021/11/23 04:13:40;;;;;;;25.75;12.35;;;;;;;-0.08;98.43;101609.22;5008623;28;20087;-77
2021/11/23 04:16:06;;;;;;;20.88;11.88;;;;;;;-0.10;97.76;101605.81;4982039;28;20034;-77
2021/11/23 04:18:31;;;;;;;22.40;11.70;;;;;;;-0.12;98.59;101618.81;4990110;28;20018;-77
2021/11/23 04:20:57;;;;;;;25.75;12.30;;;;;;;-0.13;97.66;101606.22;5034595;28;20089;-78
2021/11/23 04:23:22;;;;;;;20.58;11.55;;;;;;;-0.15;97.74;101611.03;5000804;28;20422;-77
2021/11/23 04:25:48;;;;;;;21.98;12.27;;;;;;;-0.20;98.15;101616.22;4985296;28;20482;-77
2021/11/23 04:28:13;;;;;;;24.15;11.48;;;;;;;-0.16;98.54;101615.66;5003049;28;20029;-77
2021/11/23 04:30:38;;;;;;;24.55;12.00;;;;;;;-0.18;97.97;101611.41;4978096;28;20034;-77
2021/11/23 04:33:04;;;;;;;24.10;11.50;;;;;;;-0.21;98.56;101614.53;5012481;28;20030;-77
2021/11/23 04:35:31;;;;;;;22.77;11.80;;;;;;;-0.21;99.03;101620.00;5016801;28;20041;-77
2021/11/23 04:37:56;;;;;;;21.60;11.27;;;;;;;-0.19;99.22;101612.47;5001710;28;20030;-77
2021/11/23 04:40:22;;;;;;;23.92;11.65;;;;;;;-0.20;99.41;101611.59;5018501;28;20382;-77
2021/11/23 04:42:47;;;;;;;20.90;12.35;;;;;;;-0.23;99.97;101607.38;5015421;28;20659;-77
2021/11/23 04:45:14;;;;;;;21.90;11.60;;;;;;;-0.21;99.58;101609.09;4986347;28;20088;-77
2021/11/23 04:47:39;;;;;;;21.50;11.57;;;;;;;-0.21;100.00;101611.81;5015919;28;20052;-77
2021/11/23 04:50:05;;;;;;;22.98;12.05;;;;;;;-0.17;99.96;101615.81;5034857;28;20393;-77
2021/11/23 04:52:31;;;;;;;21.63;11.98;;;;;;;-0.20;99.22;101613.50;5000910;28;20108;-77
2021/11/23 04:54:57;;;;;;;22.63;11.75;;;;;;;-0.18;99.98;101612.25;5000016;28;20026;-78
2021/11/23 04:57:23;;;;;;;22.95;13.25;;;;;;;-0.18;100.00;101619.59;5024481;28;20056;-77
2021/11/23 04:59:48;;;;;;;23.77;11.90;;;;;;;-0.15;99.85;101627.41;5029080;28;20117;-78
2021/11/23 05:02:14;;;;;;;23.52;11.98;;;;;;;-0.19;100.00;101621.50;5034442;28;20041;-77
2021/11/23 05:04:40;;;;;;;25.27;12.13;;;;;;;-0.13;100.00;101617.97;5009132;28;20036;-77
2021/11/23 05:07:05;;;;;;;21.98;11.70;;;;;;;-0.08;100.00;101623.69;5027412;28;20022;-77
2021/11/23 05:09:31;;;;;;;24.42;12.55;;;;;;;-0.10;100.00;101619.47;4998608;28;20033;-77
2021/11/23 05:11:56;;;;;;;22.30;12.25;;;;;;;-0.08;100.00;101620.13;5010732;28;20675;-77
2021/11/23 05:14:22;;;;;;;28.48;11.95;;;;;;;-0.08;100.00;101614.66;4993681;28;20107;-77
2021/11/23 05:16:48;;;;;;;21.30;11.73;;;;;;;-0.08;99.64;101615.50;5017056;28;20030;-77
2021/11/23 05:19:14;;;;;;;18.83;11.35;;;;;;;-0.08;99.18;101620.13;5015555;28;20052;-77
2021/11/23 05:21:39;;;;;;;19.05;11.20;;;;;;;-0.06;99.25;101624.31;5000572;28;20034;-77
2021/11/23 05:24:05;;;;;;;22.23;11.63;;;;;;;-0.04;99.16;101616.78;4998995;28;20045;-77
2021/11/23 05:26:30;;;;;;;21.15;12.10;;;;;;;-0.04;98.42;101615.94;5009342;28;20061;-77
2021/11/23 05:28:56;;;;;;;19.60;10.30;;;;;;;-0.02;97.81;101622.06;5017747;28;20080;-77
2021/11/23 05:31:21;;;;;;;20.48;11.25;;;;;;;-0.04;97.84;101619.53;5011103;28;20037;-77
2021/11/23 05:33:47;;;;;;;19.80;10.77;;;;;;;-0.07;97.70;101624.53;5015805;28;20088;-77
2021/11/23 05:36:12;;;;;;;21.60;11.60;;;;;;;-0.08;97.68;101620.13;5016555;28;20052;-77
2021/11/23 05:38:38;;;;;;;22.33;11.32;;;;;;;-0.07;97.43;101616.34;5014233;28;20067;-77
2021/11/23 05:41:03;;;;;;;21.08;10.95;;;;;;;-0.11;97.64;101607.72;5002292;28;20450;-77
2021/11/23 05:43:31;;;;;;;21.92;11.55;;;;;;;-0.12;97.72;101613.34;5045623;28;20393;-78
2021/11/23 05:45:57;;;;;;;26.02;11.48;;;;;;;-0.14;97.63;101621.75;4985996;28;20797;-77
2021/11/23 05:48:22;;;;;;;19.50;10.88;;;;;;;-0.18;97.76;101616.88;5014618;28;20026;-77
2021/11/23 05:50:47;;;;;;;22.20;11.07;;;;;;;-0.14;97.61;101612.69;5014640;28;20076;-77
2021/11/23 05:53:13;;;;;;;19.92;11.55;;;;;;;-0.20;97.52;101617.06;5012256;28;20017;-77
2021/11/23 05:55:38;;;;;;;19.80;10.80;;;;;;;-0.19;97.52;101628.84;5017490;28;20040;-77
2021/11/23 05:58:04;;;;;;;22.63;12.27;;;;;;;-0.20;97.55;101624.41;4990831;28;20030;-77
2021/11/23 06:00:30;;;;;;;24.63;12.05;;;;;;;-0.21;97.69;101630.94;5014662;28;20036;-76
2021/11/23 06:02:55;;;;;;;21.17;12.18;;;;;;;-0.23;97.67;101631.94;4982498;28;20025;-77
2021/11/23 06:05:21;;;;;;;19.70;11.13;;;;;;;-0.23;97.45;101633.84;5015671;28;20041;-77
2021/11/23 06:07:47;;;;;;;20.85;10.98;;;;;;;-0.26;97.24;101628.78;4998224;28;20030;-77
2021/11/23 06:10:12;;;;;;;21.05;11.00;;;;;;;-0.27;97.19;101627.94;5000121;28;20034;-77
2021/11/23 06:12:38;;;;;;;19.70;10.13;;;;;;;-0.23;96.85;101633.84;5028308;28;20045;-77
2021/11/23 06:15:07;;;;;;;19.35;11.27;;;;;;;-0.24;97.03;101627.53;5020110;28;20029;-78
2021/11/23 06:17:33;;;;;;;16.70;10.20;;;;;;;-0.20;96.69;101627.16;5011763;28;20061;-76
2021/11/23 06:19:58;;;;;;;20.52;10.57;;;;;;;-0.23;96.82;101634.69;5031696;28;20036;-77
2021/11/23 06:22:24;;;;;;;18.35;10.63;;;;;;;-0.20;96.59;101640.78;5034367;28;20057;-77
2021/11/23 06:24:49;;;;;;;19.50;10.77;;;;;;;-0.13;95.98;101637.09;5000275;28;20032;-77
2021/11/23 06:27:15;;;;;;;18.40;10.70;;;;;;;-0.14;95.88;101635.41;5016988;28;20040;-77
2021/11/23 06:29:40;;;;;;;17.00;9.95;;;;;;;-0.13;95.77;101636.25;5015283;28;20486;-77
2021/11/23 06:32:06;;;;;;;16.83;9.65;;;;;;;-0.11;95.35;101634.16;5005106;28;20030;-77
2021/11/23 06:34:32;;;;;;;18.08;9.63;;;;;;;-0.09;94.86;101643.84;5031125;28;20060;-77
2021/11/23 06:36:58;;;;;;;17.83;9.85;;;;;;;-0.09;94.72;101645.72;5012771;28;20391;-77
2021/11/23 06:39:23;;;;;;;17.48;9.90;;;;;;;-0.07;94.51;101643.66;5031144;28;20048;-77
2021/11/23 06:41:49;;;;;;;16.02;9.25;;;;;;;-0.07;94.20;101643.66;5038007;28;20034;-78
2021/11/23 06:44:15;;;;;;;16.20;9.20;;;;;;;-0.08;94.30;101639.25;5035152;28;20090;-78
2021/11/23 06:46:40;;;;;;;14.68;8.30;;;;;;;-0.05;94.00;101647.03;5036564;28;20037;-77
2021/11/23 06:49:06;;;;;;;14.05;8.57;;;;;;;-0.06;94.01;101645.34;5037583;28;20037;-77
2021/11/23 06:51:31;;;;;;;14.55;8.30;;;;;;;-0.05;93.74;101652.50;5034794;28;20029;-78
2021/11/23 06:53:57;;;;;;;16.70;8.05;;;;;;;-0.02;93.44;101643.91;5034827;28;20033;-78
2021/11/23 06:56:23;;;;;;;15.35;8.75;;;;;;;-0.06;93.58;101642.59;5022159;28;20033;-77
2021/11/23 06:58:49;;;;;;;15.48;8.38;;;;;;;-0.03;93.38;101651.28;5031333;28;20022;-78
2021/11/23 07:01:15;;;;;;;18.48;8.10;;;;;;;0.02;93.03;101656.13;5034501;28;20041;-77
2021/11/23 07:03:41;;;;;;;14.07;7.38;;;;;;;0.06;92.60;101656.59;5034319;28;20517;-78
2021/11/23 07:06:06;;;;;;;16.60;8.00;;;;;;;0.01;93.20;101659.91;5041060;28;20043;-71
2021/11/23 07:08:32;;;;;;;11.68;6.80;;;;;;;0.04;92.75;101662.25;5026111;28;20100;-71
2021/11/23 07:10:57;;;;;;;13.10;6.97;;;;;;;0.05;92.61;101666.66;5001287;28;20050;-71
2021/11/23 07:13:23;;;;;;;12.13;7.05;;;;;;;0.07;92.37;101661.00;5017255;28;20041;-72
2021/11/23 07:15:48;;;;;;;12.18;6.80;;;;;;;0.09;92.47;101670.69;4987588;28;20025;-71
2021/11/23 07:18:14;;;;;;;13.70;6.97;;;;;;;0.09;92.56;101669.88;5013952;28;20044;-71
2021/11/23 07:20:40;;;;;;;11.23;6.65;;;;;;;0.08;92.34;101657.22;5035732;28;20021;-72
2021/11/23 07:23:06;;;;;;;11.95;5.72;;;;;;;0.09;92.47;101661.66;5031585;28;20050;-70
2021/11/23 07:25:31;;;;;;;9.98;5.88;;;;;;;0.13;92.28;101662.94;5014568;28;20387;-70
2021/11/23 07:28:00;;;;;;;9.70;5.40;;;;;;;0.11;92.02;101668.63;5018540;28;20038;-76
2021/11/23 07:30:25;;;;;;;9.85;5.45;;;;;;;0.10;92.51;101675.13;5005113;28;20032;-76
2021/11/23 07:32:51;;;;;;;11.77;6.07;;;;;;;0.14;92.06;101678.28;4993093;28;20038;-76
2021/11/23 07:35:18;;;;;;;12.25;5.53;;;;;;;0.12;92.19;101667.56;5033638;28;20040;-76
2021/11/23 07:37:45;;;;;;;7.75;4.68;;;;;;;0.16;91.98;101666.13;5026008;28;20061;-76
2021/11/23 07:40:10;;;;;;;10.45;5.72;;;;;;;0.14;92.12;101679.16;5031580;28;20029;-76
2021/11/23 07:42:36;;;;;;;9.50;4.55;;;;;;;0.20;91.49;101680.25;5035746;28;20033;-76
2021/11/23 07:45:01;;;;;;;10.43;5.18;;;;;;;0.20;91.48;101677.53;5016494;28;20046;-76
2021/11/23 07:47:28;;;;;;;8.35;4.40;;;;;;;0.19;91.69;101681.28;5030812;28;20033;-76
2021/11/23 07:49:53;;;;;;;8.52;4.50;;;;;;;0.20;91.60;101681.09;5018830;28;20049;-76
2021/11/23 07:52:18;;;;;;;8.70;4.60;;;;;;;0.25;91.33;101685.09;5037092;28;20025;-76
2021/11/23 07:54:44;;;;;;;10.60;4.55;;;;;;;0.25;91.58;101676.91;5018773;28;20045;-75
2021/11/23 07:57:09;;;;;;;8.60;4.25;;;;;;;0.27;91.45;101677.56;5018625;28;20029;-76
2021/11/23 07:59:35;;;;;;;12.27;4.30;;;;;;;0.35;91.04;101680.16;5002804;28;20021;-76
2021/11/23 08:02:00;;;;;;;5.90;3.90;;;;;;;0.38;91.20;101682.50;5019858;28;20056;-76
2021/11/23 08:04:26;;;;;;;5.90;3.42;;;;;;;0.42;90.91;101683.81;5019159;28;20026;-76
2021/11/23 08:06:51;;;;;;;8.25;3.65;;;;;;;0.56;90.04;101688.31;5018685;28;20033;-76
2021/11/23 08:09:18;;;;;;;6.65;3.25;;;;;;;0.59;90.39;101690.66;5018381;28;20037;-76
2021/11/23 08:11:43;;;;;;;6.65;2.90;;;;;;;0.69;89.72;101692.19;5019477;28;20469;-76
2021/11/23 08:14:09;;;;;;;9.32;3.45;;;;;;;0.77;89.62;101694.75;5031452;28;20040;-76
2021/11/23 08:16:35;;;;;;;6.55;3.10;;;;;;;0.89;88.53;101693.16;5016450;28;20390;-76
2021/11/23 08:19:00;;;;;;;5.00;2.88;;;;;;;0.91;88.90;101685.59;5001510;28;20030;-76
2021/11/23 08:21:29;;;;;;;10.02;3.20;;;;;;;1.04;88.32;101688.41;5048672;28;20042;-76
2021/11/23 08:23:55;;;;;;;7.93;3.25;;;;;;;1.09;88.47;101696.03;5023469;28;20061;-76
2021/11/23 08:26:22;;;;;;;8.10;2.63;;;;;;;1.18;88.64;101697.53;5037255;28;20121;-76
2021/11/23 08:28:47;;;;;;;4.35;2.88;;;;;;;1.23;88.50;101689.56;5030739;28;20167;-76
2021/11/23 08:31:13;;;;;;;6.28;2.67;;;;;;;1.31;87.11;101681.19;5031474;28;20033;-76
2021/11/23 08:33:39;;;;;;;5.63;3.25;;;;;;;1.39;87.52;101688.34;5035165;28;20049;-76
2021/11/23 08:36:04;;;;;;;4.55;2.50;;;;;;;1.51;86.40;101685.88;5034675;28;20025;-76
2021/11/23 08:38:30;;;;;;;8.57;2.63;;;;;;;1.57;86.50;101690.53;5024138;28;20032;-76
2021/11/23 08:40:55;;;;;;;5.97;2.38;;;;;;;1.65;86.54;101686.78;5035316;28;20025;-76
2021/11/23 08:43:21;;;;;;;6.30;2.50;;;;;;;1.69;86.28;101694.34;5016983;28;20030;-76
2021/11/23 08:45:46;;;;;;;5.30;2.58;;;;;;;1.83;84.90;101700.72;5032984;28;20044;-76
2021/11/23 08:48:13;;;;;;;5.78;2.40;;;;;;;1.94;84.89;101697.34;5027006;28;20159;-76
2021/11/23 08:50:38;;;;;;;4.20;2.20;;;;;;;2.01;83.95;101697.38;5032259;28;20042;-76
2021/11/23 08:53:07;;;;;;;8.70;2.70;;;;;;;2.09;84.25;101696.31;5017752;28;20029;-76
2021/11/23 08:55:33;;;;;;;5.60;2.40;;;;;;;2.18;83.21;101701.41;5022804;28;20129;-76
2021/11/23 08:57:58;;;;;;;6.63;2.70;;;;;;;2.22;85.10;101701.81;5037335;28;20029;-76
2021/11/23 09:00:24;;;;;;;4.97;2.22;;;;;;;2.29;84.88;101701.84;5021255;28;20021;-76
2021/11/23 09:02:52;;;;;;;5.65;2.35;;;;;;;2.39;83.24;101707.75;5026688;28;20068;-77
2021/11/23 09:05:19;;;;;;;5.18;1.98;;;;;;;2.49;83.89;101705.44;5015374;28;20095;-76
2021/11/23 09:07:44;;;;;;;4.50;2.15;;;;;;;2.60;82.78;101696.56;5033257;28;20042;-77
2021/11/23 09:10:17;;;;;;;4.90;1.75;;;;;;;2.72;81.51;101702.25;5035827;28;20033;-76
2021/11/23 09:12:43;;;;;;;4.65;2.17;;;;;;;2.80;80.67;101695.69;5017460;28;20028;-76
2021/11/23 09:15:09;;;;;;;4.68;2.13;;;;;;;2.89;81.20;101703.47;5032848;28;20029;-76
2021/11/23 09:17:34;;;;;;;3.13;2.00;;;;;;;2.99;79.58;101693.97;5017831;28;20059;-76
2021/11/23 09:20:00;;;;;;;3.65;1.63;;;;;;;3.09;78.51;101697.97;5033249;28;20502;-76
2021/11/23 09:22:25;;;;;;;4.15;1.77;;;;;;;3.18;77.58;101697.72;5038963;28;20037;-76
2021/11/23 09:24:51;;;;;;;3.67;1.80;;;;;;;3.24;77.03;101705.94;5030334;28;20026;-76
2021/11/23 09:27:16;;;;;;;6.32;2.17;;;;;;;3.27;76.01;101697.25;5031230;28;20033;-76
2021/11/23 09:29:42;;;;;;;2.72;1.60;;;;;;;3.40;78.48;101695.50;5032119;28;20072;-76
2021/11/23 09:32:07;;;;;;;4.90;1.45;;;;;;;3.43;77.53;101704.19;5014606;28;20053;-76
2021/11/23 09:34:34;;;;;;;5.07;1.90;;;;;;;3.45;75.83;101704.78;5017157;28;20092;-76
2021/11/23 09:36:59;;;;;;;4.30;2.10;;;;;;;3.56;75.41;101706.00;5034242;28;20045;-76
2021/11/23 09:39:25;;;;;;;4.50;1.92;;;;;;;3.64;76.16;101703.00;5017088;28;20025;-76
2021/11/23 09:41:51;;;;;;;4.55;1.83;;;;;;;3.73;74.64;101706.34;4983738;28;20087;-76
2021/11/23 09:44:16;;;;;;;4.05;1.65;;;;;;;3.78;73.75;101699.13;5034070;28;20038;-76
2021/11/23 09:46:42;;;;;;;4.80;1.75;;;;;;;3.83;73.87;101705.88;5031837;28;20075;-76
2021/11/23 09:49:07;;;;;;;3.75;1.65;;;;;;;3.89;73.55;101708.59;5018170;28;20394;-76
2021/11/23 09:51:34;;;;;;;3.75;1.73;;;;;;;3.91;73.23;101708.38;5033425;28;20037;-76
2021/11/23 09:54:00;;;;;;;4.63;1.70;;;;;;;4.02;71.74;101710.41;5004170;28;20025;-75
2021/11/23 09:56:26;;;;;;;3.67;1.73;;;;;;;4.08;71.90;101698.53;5033433;28;20041;-76
2021/11/23 09:58:55;;;;;;;4.63;1.70;;;;;;;4.12;70.19;101699.75;5000080;28;20041;-76
2021/11/23 10:01:23;;;;;;;4.43;2.08;;;;;;;4.19;70.63;101705.22;5031551;28;20036;-76
2021/11/23 10:03:49;;;;;;;5.22;1.90;;;;;;;4.22;70.94;101705.63;5018689;28;20037;-76
2021/11/23 10:06:18;;;;;;;4.03;1.80;;;;;;;4.21;71.98;101692.94;5016610;28;20044;-76
2021/11/23 10:08:44;;;;;;;4.80;1.42;;;;;;;4.28;70.73;101697.53;5043353;28;20033;-76
2021/11/23 10:11:10;;;;;;;4.45;1.98;;;;;;;4.30;70.41;101698.16;5026145;28;20036;-75
2021/11/23 10:13:46;;;;;;;4.88;1.85;;;;;;;4.44;69.25;101699.75;5018341;28;20034;-75
2021/11/23 10:16:12;;;;;;;8.13;2.25;;;;;;;4.47;69.45;101699.28;5045290;28;20034;-76
2021/11/23 10:18:38;;;;;;;6.93;2.80;;;;;;;4.52;69.01;101699.47;5036958;28;20037;-75
2021/11/23 10:21:05;;;;;;;6.50;2.38;;;;;;;4.64;68.89;101697.66;5037940;28;20470;-76
2021/11/23 10:23:39;;;;;;;6.43;2.35;;;;;;;4.70;68.66;101691.25;5040308;28;20387;-76
2021/11/23 10:26:06;;;;;;;5.72;2.05;;;;;;;4.78;69.49;101689.28;5017800;28;20486;-76
2021/11/23 10:28:32;;;;;;;3.72;1.63;;;;;;;4.80;68.88;101693.50;5007663;28;20028;-76
2021/11/23 10:30:59;;;;;;;4.70;2.20;;;;;;;4.83;67.23;101694.94;5026719;28;20092;-76
2021/11/23 10:33:24;;;;;;;4.00;1.92;;;;;;;4.89;68.44;101685.78;5017556;28;20043;-76
2021/11/23 10:35:52;;;;;;;4.18;1.92;;;;;;;4.96;68.39;101691.19;5005360;28;20037;-76
2021/11/23 10:38:19;;;;;;;4.50;2.00;;;;;;;5.05;67.89;101687.09;5001698;28;20038;-76
2021/11/23 10:40:45;;;;;;;4.25;1.65;;;;;;;5.13;66.67;101687.63;5032377;28;20084;-76
2021/11/23 10:43:16;;;;;;;4.22;1.83;;;;;;;5.17;68.07;101684.41;5022152;28;20028;-76
2021/11/23 10:45:47;;;;;;;4.22;2.05;;;;;;;5.22;66.33;101679.06;5026884;28;20065;-76
2021/11/23 10:48:13;;;;;;;4.68;1.83;;;;;;;5.25;66.49;101681.34;5035230;28;20113;-76
2021/11/23 10:50:41;;;;;;;5.25;1.70;;;;;;;5.32;66.55;101665.56;4989166;28;20034;-75
2021/11/23 10:53:12;;;;;;;4.40;1.80;;;;;;;5.36;66.90;101666.81;5002418;28;20057;-76
2021/11/23 10:55:41;;;;;;;4.43;1.42;;;;;;;5.41;65.85;101669.72;5019722;28;20033;-76
2021/11/23 10:58:07;;;;;;;4.28;1.45;;;;;;;5.45;64.19;101657.16;5028161;28;20113;-76
2021/11/23 11:00:39;;;;;;;4.22;1.50;;;;;;;5.50;65.01;101661.97;5016152;28;20049;-76
2021/11/23 11:03:06;;;;;;;6.22;1.40;;;;;;;5.53;65.16;101667.84;5038011;28;20109;-75
2021/11/23 11:05:34;;;;;;;4.22;1.60;;;;;;;5.56;64.94;101666.56;5017886;28;20034;-76
2021/11/23 11:08:01;;;;;;;4.68;1.75;;;;;;;5.60;65.29;101665.88;5035416;28;20032;-76
2021/11/23 11:10:27;;;;;;;4.45;1.85;;;;;;;5.64;64.70;101663.47;5037652;28;20026;-76
2021/11/23 11:12:53;;;;;;;5.40;1.73;;;;;;;5.72;62.77;101654.88;4996835;28;20038;-76
2021/11/23 11:15:21;;;;;;;5.30;2.17;;;;;;;5.77;63.46;101655.03;5014988;28;20037;-76
2021/11/23 11:17:46;;;;;;;5.15;1.90;;;;;;;5.80;64.18;101657.31;5017788;28;20034;-75